PN57 weather

Marion Center Speedway Airport
Marion Center, Pennsylvania, United States

Public forecast

Using degrees Fahrenheit for public forecast. Weather courtesy of forecast.io.

Closest aviation weather report (METAR) to Marion Center Speedway Airport

Closest report is Indiana County/Jimmy Stewart Fld/ Airport, 11.2 nm (20.8 km) SSW. Retrieved 2020/08/07 00:15 UTC (0 seconds ago):

KIDI 070015Z AUTO 00000KT 10SM FEW075 24/17 A3013 RMK A01

Closest aviation forecast (TAF) to Marion Center Speedway Airport

Closest forecast is DuBois Regional Airport, 22.9 nm (42.4 km) NNE. Retrieved 2020-08-07 00:24 UTC (0 seconds ago):

TAF KDUJ 062321Z 0700/0724 VRB03KT P6SM BKN060 FM071000 07003KT 3SM BR SCT025 FM071500 03005KT P6SM BKN035